sensor_id;sensor_type;location;lat;lon;timestamp;pressure;altitude;pressure_sealevel;temperature;humidity
34500;BME280;20745;50.882;6.962;2023-03-01T00:01:35;102319.75;;;1.70;78.07
34500;BME280;20745;50.882;6.962;2023-03-01T00:04:02;102320.44;;;1.58;78.67
34500;BME280;20745;50.882;6.962;2023-03-01T00:06:28;102320.44;;;1.43;79.64
34500;BME280;20745;50.882;6.962;2023-03-01T00:08:55;102321.63;;;1.37;79.58
34500;BME280;20745;50.882;6.962;2023-03-01T00:11:25;102321.81;;;1.50;79.35
34500;BME280;20745;50.882;6.962;2023-03-01T00:13:54;102330.03;;;1.45;79.68
34500;BME280;20745;50.882;6.962;2023-03-01T00:16:42;102332.84;;;1.42;81.18
34500;BME280;20745;50.882;6.962;2023-03-01T00:19:14;102336.22;;;1.30;81.22
34500;BME280;20745;50.882;6.962;2023-03-01T00:21:41;102331.31;;;1.38;81.21
34500;BME280;20745;50.882;6.962;2023-03-01T00:24:09;102325.75;;;1.43;80.77
34500;BME280;20745;50.882;6.962;2023-03-01T00:26:36;102323.34;;;1.38;81.12
34500;BME280;20745;50.882;6.962;2023-03-01T00:29:03;102299.78;;;1.31;80.78
34500;BME280;20745;50.882;6.962;2023-03-01T00:31:31;102337.84;;;1.48;81.02
34500;BME280;20745;50.882;6.962;2023-03-01T00:34:00;102335.03;;;1.51;80.97
34500;BME280;20745;50.882;6.962;2023-03-01T00:36:31;102337.53;;;1.54;80.90
34500;BME280;20745;50.882;6.962;2023-03-01T00:38:59;102327.47;;;1.59;80.84
34500;BME280;20745;50.882;6.962;2023-03-01T00:41:26;102315.59;;;1.49;80.80
34500;BME280;20745;50.882;6.962;2023-03-01T00:43:54;102324.78;;;1.59;80.72
34500;BME280;20745;50.882;6.962;2023-03-01T00:46:23;102323.88;;;1.60;80.77
34500;BME280;20745;50.882;6.962;2023-03-01T00:48:50;102324.63;;;1.62;80.26
34500;BME280;20745;50.882;6.962;2023-03-01T00:51:25;102330.13;;;1.59;81.00
34500;BME280;20745;50.882;6.962;2023-03-01T00:53:57;102325.41;;;1.64;80.87
34500;BME280;20745;50.882;6.962;2023-03-01T00:56:23;102321.97;;;1.62;81.01
34500;BME280;20745;50.882;6.962;2023-03-01T00:58:50;102316.06;;;1.57;81.31
34500;BME280;20745;50.882;6.962;2023-03-01T01:01:23;102299.72;;;1.48;81.78
34500;BME280;20745;50.882;6.962;2023-03-01T01:03:56;102321.47;;;1.56;81.10
34500;BME280;20745;50.882;6.962;2023-03-01T01:06:34;102315.97;;;1.43;82.43
34500;BME280;20745;50.882;6.962;2023-03-01T01:09:03;102316.72;;;1.45;82.67
34500;BME280;20745;50.882;6.962;2023-03-01T01:11:30;102320.34;;;1.44;82.61
34500;BME280;20745;50.882;6.962;2023-03-01T01:13:57;102311.72;;;1.39;83.05
34500;BME280;20745;50.882;6.962;2023-03-01T01:16:25;102298.59;;;1.36;82.73
34500;BME280;20745;50.882;6.962;2023-03-01T01:18:53;102300.31;;;1.37;83.70
34500;BME280;20745;50.882;6.962;2023-03-01T01:21:22;102297.22;;;1.45;83.49
34500;BME280;20745;50.882;6.962;2023-03-01T01:23:48;102290.72;;;1.50;82.46
34500;BME280;20745;50.882;6.962;2023-03-01T01:26:21;102285.41;;;1.50;81.97
34500;BME280;20745;50.882;6.962;2023-03-01T01:28:48;102276.63;;;1.48;81.52
34500;BME280;20745;50.882;6.962;2023-03-01T01:31:14;102279.28;;;1.48;82.02
34500;BME280;20745;50.882;6.962;2023-03-01T01:33:41;102279.03;;;1.37;82.89
34500;BME280;20745;50.882;6.962;2023-03-01T01:36:08;102278.41;;;1.32;83.19
34500;BME280;20745;50.882;6.962;2023-03-01T01:38:36;102277.03;;;1.25;83.91
34500;BME280;20745;50.882;6.962;2023-03-01T01:41:05;102271.03;;;1.22;83.55
34500;BME280;20745;50.882;6.962;2023-03-01T01:43:38;102267.50;;;1.21;83.59
34500;BME280;20745;50.882;6.962;2023-03-01T01:46:21;102272.50;;;1.27;83.52
34500;BME280;20745;50.882;6.962;2023-03-01T01:48:55;102256.53;;;1.27;83.34
34500;BME280;20745;50.882;6.962;2023-03-01T01:51:28;102249.22;;;1.15;84.19
34500;BME280;20745;50.882;6.962;2023-03-01T01:54:10;102256.53;;;1.12;84.78
34500;BME280;20745;50.882;6.962;2023-03-01T01:56:38;102220.03;;;0.98;84.85
34500;BME280;20745;50.882;6.962;2023-03-01T01:59:07;102257.75;;;1.22;83.84
34500;BME280;20745;50.882;6.962;2023-03-01T02:01:33;102250.16;;;1.14;84.50
34500;BME280;20745;50.882;6.962;2023-03-01T02:04:00;102251.72;;;1.18;84.53
34500;BME280;20745;50.882;6.962;2023-03-01T02:06:37;102255.16;;;1.20;84.26
34500;BME280;20745;50.882;6.962;2023-03-01T02:09:12;102246.31;;;1.20;84.23
34500;BME280;20745;50.882;6.962;2023-03-01T02:11:40;102247.34;;;1.17;83.93
34500;BME280;20745;50.882;6.962;2023-03-01T02:14:06;102233.91;;;1.03;84.81
34500;BME280;20745;50.882;6.962;2023-03-01T02:16:33;102234.53;;;1.08;84.87
34500;BME280;20745;50.882;6.962;2023-03-01T02:19:00;102245.44;;;1.19;84.79
34500;BME280;20745;50.882;6.962;2023-03-01T02:24:19;102233.59;;;1.25;84.22
34500;BME280;20745;50.882;6.962;2023-03-01T02:26:55;102205.97;;;1.12;84.45
34500;BME280;20745;50.882;6.962;2023-03-01T02:29:23;102235.50;;;1.23;83.43
34500;BME280;20745;50.882;6.962;2023-03-01T02:31:52;102229.38;;;1.05;84.77
34500;BME280;20745;50.882;6.962;2023-03-01T02:34:22;102236.56;;;1.03;86.08
34500;BME280;20745;50.882;6.962;2023-03-01T02:36:53;102224.84;;;1.07;85.81
34500;BME280;20745;50.882;6.962;2023-03-01T02:39:25;102231.09;;;1.06;84.98
34500;BME280;20745;50.882;6.962;2023-03-01T02:41:54;102232.81;;;0.92;85.94
34500;BME280;20745;50.882;6.962;2023-03-01T02:44:22;102227.66;;;0.89;87.28
34500;BME280;20745;50.882;6.962;2023-03-01T02:46:51;102238.06;;;0.76;86.89
34500;BME280;20745;50.882;6.962;2023-03-01T02:49:30;102223.16;;;0.74;87.52
34500;BME280;20745;50.882;6.962;2023-03-01T02:54:40;102234.59;;;0.91;86.35
34500;BME280;20745;50.882;6.962;2023-03-01T02:57:08;102233.97;;;0.86;87.29
34500;BME280;20745;50.882;6.962;2023-03-01T02:59:36;102226.63;;;0.91;86.96
34500;BME280;20745;50.882;6.962;2023-03-01T03:02:18;102225.25;;;1.00;85.84
34500;BME280;20745;50.882;6.962;2023-03-01T03:04:46;102213.25;;;0.93;85.77
34500;BME280;20745;50.882;6.962;2023-03-01T03:07:13;102223.00;;;0.92;86.15
34500;BME280;20745;50.882;6.962;2023-03-01T03:09:40;102220.28;;;0.94;86.21
34500;BME280;20745;50.882;6.962;2023-03-01T03:12:06;102217.69;;;0.92;86.18
34500;BME280;20745;50.882;6.962;2023-03-01T03:14:33;102213.91;;;0.96;85.83
34500;BME280;20745;50.882;6.962;2023-03-01T03:17:01;102212.97;;;0.82;84.64
34500;BME280;20745;50.882;6.962;2023-03-01T03:19:28;102202.75;;;0.74;86.75
34500;BME280;20745;50.882;6.962;2023-03-01T03:21:55;102205.50;;;0.73;85.45
34500;BME280;20745;50.882;6.962;2023-03-01T03:24:21;102206.16;;;0.76;88.10
34500;BME280;20745;50.882;6.962;2023-03-01T03:26:48;102207.66;;;0.49;85.61
34500;BME280;20745;50.882;6.962;2023-03-01T03:29:14;102199.03;;;0.61;87.99
34500;BME280;20745;50.882;6.962;2023-03-01T03:31:41;102203.75;;;0.39;87.33
34500;BME280;20745;50.882;6.962;2023-03-01T03:34:08;102196.44;;;0.27;88.58
34500;BME280;20745;50.882;6.962;2023-03-01T03:36:34;102195.06;;;0.20;90.09
34500;BME280;20745;50.882;6.962;2023-03-01T03:39:01;102197.00;;;0.17;91.67
34500;BME280;20745;50.882;6.962;2023-03-01T03:41:27;102203.88;;;0.21;92.46
34500;BME280;20745;50.882;6.962;2023-03-01T03:43:54;102198.47;;;0.22;92.92
34500;BME280;20745;50.882;6.962;2023-03-01T03:46:20;102199.19;;;0.26;95.19
34500;BME280;20745;50.882;6.962;2023-03-01T03:48:47;102198.78;;;0.16;95.09
34500;BME280;20745;50.882;6.962;2023-03-01T03:51:15;102202.38;;;0.15;98.13
34500;BME280;20745;50.882;6.962;2023-03-01T03:53:42;102198.63;;;0.19;96.77
34500;BME280;20745;50.882;6.962;2023-03-01T03:56:10;102189.56;;;0.23;93.94
34500;BME280;20745;50.882;6.962;2023-03-01T03:58:37;102195.81;;;0.22;93.95
34500;BME280;20745;50.882;6.962;2023-03-01T04:01:04;102188.63;;;0.24;90.70
34500;BME280;20745;50.882;6.962;2023-03-01T04:03:31;102177.38;;;0.19;93.20
34500;BME280;20745;50.882;6.962;2023-03-01T04:05:59;102179.44;;;0.14;91.79
34500;BME280;20745;50.882;6.962;2023-03-01T04:08:27;102177.53;;;0.16;91.99
34500;BME280;20745;50.882;6.962;2023-03-01T04:10:59;102178.03;;;0.07;92.63
34500;BME280;20745;50.882;6.962;2023-03-01T04:13:26;102175.31;;;0.09;91.99
34500;BME280;20745;50.882;6.962;2023-03-01T04:15:54;102168.81;;;0.14;90.25
34500;BME280;20745;50.882;6.962;2023-03-01T04:18:22;102165.59;;;0.08;90.07
34500;BME280;20745;50.882;6.962;2023-03-01T04:20:49;102170.06;;;0.07;92.55
34500;BME280;20745;50.882;6.962;2023-03-01T04:23:19;102170.34;;;0.18;92.71
34500;BME280;20745;50.882;6.962;2023-03-01T04:25:55;102168.53;;;0.36;89.09
34500;BME280;20745;50.882;6.962;2023-03-01T04:28:34;102171.75;;;0.25;89.52
34500;BME280;20745;50.882;6.962;2023-03-01T04:31:05;102168.28;;;0.40;88.92
34500;BME280;20745;50.882;6.962;2023-03-01T04:33:48;102166.59;;;0.22;89.88
34500;BME280;20745;50.882;6.962;2023-03-01T04:36:16;102145.91;;;-0.06;90.17
34500;BME280;20745;50.882;6.962;2023-03-01T04:38:44;102160.03;;;0.12;88.78
34500;BME280;20745;50.882;6.962;2023-03-01T04:41:16;102168.97;;;0.11;90.84
34500;BME280;20745;50.882;6.962;2023-03-01T04:43:42;102174.56;;;0.22;88.77
34500;BME280;20745;50.882;6.962;2023-03-01T04:46:14;102174.16;;;0.30;89.66
34500;BME280;20745;50.882;6.962;2023-03-01T04:48:42;102165.81;;;0.03;88.70
34500;BME280;20745;50.882;6.962;2023-03-01T04:51:09;102152.72;;;-0.17;90.51
34500;BME280;20745;50.882;6.962;2023-03-01T04:53:40;102144.59;;;-0.31;93.80
34500;BME280;20745;50.882;6.962;2023-03-01T04:56:06;102149.84;;;-0.30;95.34
34500;BME280;20745;50.882;6.962;2023-03-01T04:58:33;102149.75;;;-0.11;96.29
34500;BME280;20745;50.882;6.962;2023-03-01T05:01:13;102157.84;;;0.03;93.71
34500;BME280;20745;50.882;6.962;2023-03-01T05:03:47;102157.03;;;0.03;93.93
34500;BME280;20745;50.882;6.962;2023-03-01T05:06:15;102155.69;;;-0.06;92.57
34500;BME280;20745;50.882;6.962;2023-03-01T05:08:42;102157.94;;;-0.16;94.71
34500;BME280;20745;50.882;6.962;2023-03-01T05:11:09;102154.75;;;-0.22;92.26
34500;BME280;20745;50.882;6.962;2023-03-01T05:13:38;102159.78;;;-0.33;93.39
34500;BME280;20745;50.882;6.962;2023-03-01T05:16:06;102161.47;;;-0.32;96.28
34500;BME280;20745;50.882;6.962;2023-03-01T05:18:33;102157.41;;;-0.39;93.97
34500;BME280;20745;50.882;6.962;2023-03-01T05:21:05;102163.75;;;-0.42;94.32
34500;BME280;20745;50.882;6.962;2023-03-01T05:23:32;102165.53;;;-0.42;93.81
34500;BME280;20745;50.882;6.962;2023-03-01T05:26:00;102148.44;;;-0.54;93.41
34500;BME280;20745;50.882;6.962;2023-03-01T05:28:27;102151.88;;;-0.52;94.38
34500;BME280;20745;50.882;6.962;2023-03-01T05:30:55;102158.16;;;-0.54;94.48
34500;BME280;20745;50.882;6.962;2023-03-01T05:33:22;102159.34;;;-0.43;94.03
34500;BME280;20745;50.882;6.962;2023-03-01T05:35:49;102161.41;;;-0.48;94.97
34500;BME280;20745;50.882;6.962;2023-03-01T05:38:16;102155.00;;;-0.44;95.07
34500;BME280;20745;50.882;6.962;2023-03-01T05:40:45;102149.31;;;-0.36;97.27
34500;BME280;20745;50.882;6.962;2023-03-01T05:43:13;102151.16;;;-0.38;95.41
34500;BME280;20745;50.882;6.962;2023-03-01T05:45:41;102155.69;;;-0.40;94.11
34500;BME280;20745;50.882;6.962;2023-03-01T05:48:09;102157.56;;;-0.42;96.61
34500;BME280;20745;50.882;6.962;2023-03-01T05:50:42;102161.47;;;-0.49;95.63
34500;BME280;20745;50.882;6.962;2023-03-01T05:53:16;102159.19;;;-0.40;96.28
34500;BME280;20745;50.882;6.962;2023-03-01T05:55:44;102162.25;;;-0.30;97.22
34500;BME280;20745;50.882;6.962;2023-03-01T05:58:17;102162.72;;;-0.39;92.90
34500;BME280;20745;50.882;6.962;2023-03-01T06:00:45;102153.97;;;-0.41;96.78
34500;BME280;20745;50.882;6.962;2023-03-01T06:03:14;102158.44;;;-0.42;94.04
34500;BME280;20745;50.882;6.962;2023-03-01T06:05:41;102154.13;;;-0.44;94.02
34500;BME280;20745;50.882;6.962;2023-03-01T06:08:09;102154.75;;;-0.56;97.13
34500;BME280;20745;50.882;6.962;2023-03-01T06:10:36;102149.16;;;-0.69;100.00
34500;BME280;20745;50.882;6.962;2023-03-01T06:13:02;102150.75;;;-0.65;100.00
34500;BME280;20745;50.882;6.962;2023-03-01T06:15:29;102148.25;;;-0.68;100.00
34500;BME280;20745;50.882;6.962;2023-03-01T06:17:56;102141.13;;;-0.67;100.00
34500;BME280;20745;50.882;6.962;2023-03-01T06:20:27;102142.22;;;-0.71;100.00
34500;BME280;20745;50.882;6.962;2023-03-01T06:22:54;102137.94;;;-0.74;100.00
34500;BME280;20745;50.882;6.962;2023-03-01T06:25:23;102145.81;;;-0.72;100.00
34500;BME280;20745;50.882;6.962;2023-03-01T06:27:50;102148.63;;;-0.75;100.00
34500;BME280;20745;50.882;6.962;2023-03-01T06:30:20;102155.78;;;-0.77;100.00
34500;BME280;20745;50.882;6.962;2023-03-01T06:32:47;102150.56;;;-0.79;100.00
34500;BME280;20745;50.882;6.962;2023-03-01T06:35:14;102146.78;;;-0.73;100.00
34500;BME280;20745;50.882;6.962;2023-03-01T06:37:44;102145.69;;;-0.69;100.00
34500;BME280;20745;50.882;6.962;2023-03-01T06:40:12;102108.75;;;-0.74;100.00
34500;BME280;20745;50.882;6.962;2023-03-01T06:42:43;102151.97;;;-0.36;100.00
34500;BME280;20745;50.882;6.962;2023-03-01T06:45:10;102143.59;;;-0.29;98.98
34500;BME280;20745;50.882;6.962;2023-03-01T06:47:37;102146.50;;;-0.33;99.31
34500;BME280;20745;50.882;6.962;2023-03-01T06:50:04;102144.28;;;-0.25;99.32
34500;BME280;20745;50.882;6.962;2023-03-01T06:52:31;102148.66;;;-0.41;97.59
34500;BME280;20745;50.882;6.962;2023-03-01T06:54:57;102142.59;;;-0.43;99.22
34500;BME280;20745;50.882;6.962;2023-03-01T06:57:24;102151.31;;;-0.41;97.58
34500;BME280;20745;50.882;6.962;2023-03-01T06:59:50;102139.44;;;-0.34;97.53
34500;BME280;20745;50.882;6.962;2023-03-01T07:02:18;102144.44;;;-0.28;98.26
34500;BME280;20745;50.882;6.962;2023-03-01T07:04:44;102150.06;;;-0.34;97.36
34500;BME280;20745;50.882;6.962;2023-03-01T07:07:11;102154.38;;;-0.32;97.86
34500;BME280;20745;50.882;6.962;2023-03-01T07:09:37;102150.78;;;-0.31;97.11
34500;BME280;20745;50.882;6.962;2023-03-01T07:12:04;102152.72;;;-0.34;99.14
34500;BME280;20745;50.882;6.962;2023-03-01T07:14:31;102149.44;;;-0.22;100.00
34500;BME280;20745;50.882;6.962;2023-03-01T07:16:57;102146.16;;;-0.27;100.00
34500;BME280;20745;50.882;6.962;2023-03-01T07:19:24;102146.31;;;-0.30;100.00
34500;BME280;20745;50.882;6.962;2023-03-01T07:21:50;102135.06;;;-0.18;100.00
34500;BME280;20745;50.882;6.962;2023-03-01T07:24:17;102131.03;;;-0.25;100.00
34500;BME280;20745;50.882;6.962;2023-03-01T07:26:44;102126.97;;;-0.32;100.00
34500;BME280;20745;50.882;6.962;2023-03-01T07:29:10;102130.78;;;-0.21;100.00
34500;BME280;20745;50.882;6.962;2023-03-01T07:31:37;102134.41;;;-0.22;100.00
34500;BME280;20745;50.882;6.962;2023-03-01T07:34:03;102131.31;;;-0.14;100.00
34500;BME280;20745;50.882;6.962;2023-03-01T07:36:30;102127.69;;;-0.12;100.00
34500;BME280;20745;50.882;6.962;2023-03-01T07:38:57;102132.56;;;-0.04;100.00
34500;BME280;20745;50.882;6.962;2023-03-01T07:41:24;102126.50;;;-0.06;100.00
34500;BME280;20745;50.882;6.962;2023-03-01T07:43:51;102135.78;;;0.03;100.00
34500;BME280;20745;50.882;6.962;2023-03-01T07:46:17;102142.91;;;0.18;100.00
34500;BME280;20745;50.882;6.962;2023-03-01T07:48:45;102139.88;;;0.25;99.85
34500;BME280;20745;50.882;6.962;2023-03-01T07:51:12;102137.28;;;0.24;100.00
34500;BME280;20745;50.882;6.962;2023-03-01T07:53:38;102142.97;;;0.33;99.88
34500;BME280;20745;50.882;6.962;2023-03-01T07:56:10;102132.88;;;0.40;97.67
34500;BME280;20745;50.882;6.962;2023-03-01T07:58:39;102137.66;;;0.33;98.79
34500;BME280;20745;50.882;6.962;2023-03-01T08:01:07;102124.34;;;0.50;99.50
34500;BME280;20745;50.882;6.962;2023-03-01T08:03:36;102129.91;;;0.61;97.03
34500;BME280;20745;50.882;6.962;2023-03-01T08:06:04;102105.66;;;0.67;98.84
34500;BME280;20745;50.882;6.962;2023-03-01T08:08:32;102117.66;;;0.90;97.39
34500;BME280;20745;50.882;6.962;2023-03-01T08:11:00;102114.41;;;1.00;95.83
34500;BME280;20745;50.882;6.962;2023-03-01T08:13:27;102118.94;;;0.98;97.40
34500;BME280;20745;50.882;6.962;2023-03-01T08:15:54;102123.31;;;0.99;98.33
34500;BME280;20745;50.882;6.962;2023-03-01T08:18:21;102119.97;;;1.11;98.72
34500;BME280;20745;50.882;6.962;2023-03-01T08:20:47;102117.13;;;1.14;96.06
34500;BME280;20745;50.882;6.962;2023-03-01T08:23:14;102124.38;;;1.26;95.42
34500;BME280;20745;50.882;6.962;2023-03-01T08:25:41;102116.59;;;1.23;92.39
34500;BME280;20745;50.882;6.962;2023-03-01T08:28:07;102115.88;;;1.35;91.38
34500;BME280;20745;50.882;6.962;2023-03-01T08:30:34;102122.38;;;1.45;88.16
34500;BME280;20745;50.882;6.962;2023-03-01T08:33:01;102120.81;;;1.57;86.90
34500;BME280;20745;50.882;6.962;2023-03-01T08:35:27;102123.22;;;1.61;85.30
34500;BME280;20745;50.882;6.962;2023-03-01T08:37:54;102115.03;;;1.64;84.53
34500;BME280;20745;50.882;6.962;2023-03-01T08:40:21;102119.06;;;1.71;83.80
34500;BME280;20745;50.882;6.962;2023-03-01T08:42:47;102116.03;;;1.77;83.37
34500;BME280;20745;50.882;6.962;2023-03-01T08:45:14;102116.03;;;1.77;82.33
34500;BME280;20745;50.882;6.962;2023-03-01T08:47:44;102114.72;;;1.84;81.53
34500;BME280;20745;50.882;6.962;2023-03-01T08:50:11;102110.91;;;1.88;81.95
34500;BME280;20745;50.882;6.962;2023-03-01T08:52:38;102115.28;;;1.89;81.52
34500;BME280;20745;50.882;6.962;2023-03-01T08:55:05;102113.38;;;1.91;81.02
34500;BME280;20745;50.882;6.962;2023-03-01T08:57:32;102111.19;;;1.98;80.90
34500;BME280;20745;50.882;6.962;2023-03-01T08:59:58;102106.75;;;1.98;80.75
34500;BME280;20745;50.882;6.962;2023-03-01T09:02:25;102102.19;;;2.14;81.62
34500;BME280;20745;50.882;6.962;2023-03-01T09:04:51;102096.78;;;2.16;81.27
34500;BME280;20745;50.882;6.962;2023-03-01T09:07:18;102107.16;;;2.34;80.60
34500;BME280;20745;50.882;6.962;2023-03-01T09:09:44;102099.69;;;2.39;80.50
34500;BME280;20745;50.882;6.962;2023-03-01T09:12:11;102099.50;;;2.42;79.83
34500;BME280;20745;50.882;6.962;2023-03-01T09:14:37;102106.25;;;2.48;79.57
34500;BME280;20745;50.882;6.962;2023-03-01T09:17:05;102088.97;;;2.55;79.03
34500;BME280;20745;50.882;6.962;2023-03-01T09:19:31;102089.31;;;2.63;78.39
34500;BME280;20745;50.882;6.962;2023-03-01T09:21:58;102086.34;;;2.68;77.68
34500;BME280;20745;50.882;6.962;2023-03-01T09:24:25;102086.50;;;2.79;78.11
34500;BME280;20745;50.882;6.962;2023-03-01T09:26:55;102084.63;;;2.81;77.41
34500;BME280;20745;50.882;6.962;2023-03-01T09:29:22;102092.44;;;2.84;76.56
34500;BME280;20745;50.882;6.962;2023-03-01T09:31:49;102087.25;;;2.95;75.79
34500;BME280;20745;50.882;6.962;2023-03-01T09:34:16;102086.75;;;3.02;75.84
34500;BME280;20745;50.882;6.962;2023-03-01T09:36:45;102085.47;;;3.08;75.85
34500;BME280;20745;50.882;6.962;2023-03-01T09:39:12;102075.53;;;3.10;75.42
34500;BME280;20745;50.882;6.962;2023-03-01T09:41:45;102078.00;;;3.13;74.90
34500;BME280;20745;50.882;6.962;2023-03-01T09:44:38;102072.47;;;3.16;74.68
34500;BME280;20745;50.882;6.962;2023-03-01T09:47:14;102070.78;;;3.15;74.17
34500;BME280;20745;50.882;6.962;2023-03-01T09:50:18;102065.78;;;3.23;73.82
34500;BME280;20745;50.882;6.962;2023-03-01T09:52:41;102063.00;;;3.24;73.54
34500;BME280;20745;50.882;6.962;2023-03-01T09:55:14;102054.69;;;3.29;73.40
34500;BME280;20745;50.882;6.962;2023-03-01T09:57:52;102049.72;;;3.37;73.08
34500;BME280;20745;50.882;6.962;2023-03-01T10:00:26;102046.59;;;3.43;74.18
34500;BME280;20745;50.882;6.962;2023-03-01T10:06:21;102053.59;;;3.58;73.79
34500;BME280;20745;50.882;6.962;2023-03-01T10:09:13;102052.19;;;3.65;72.77
34500;BME280;20745;50.882;6.962;2023-03-01T10:11:51;102050.41;;;3.65;71.93
34500;BME280;20745;50.882;6.962;2023-03-01T10:14:30;102051.69;;;3.72;72.44
34500;BME280;20745;50.882;6.962;2023-03-01T10:17:07;102050.59;;;3.75;71.95
34500;BME280;20745;50.882;6.962;2023-03-01T10:19:45;102045.06;;;3.78;72.25
34500;BME280;20745;50.882;6.962;2023-03-01T10:22:28;102030.94;;;3.76;71.56
34500;BME280;20745;50.882;6.962;2023-03-01T10:24:57;102035.66;;;3.85;70.88
34500;BME280;20745;50.882;6.962;2023-03-01T10:27:27;102037.13;;;3.89;71.45
34500;BME280;20745;50.882;6.962;2023-03-01T10:30:32;102032.25;;;3.95;70.84
34500;BME280;20745;50.882;6.962;2023-03-01T10:33:00;102028.50;;;3.98;70.57
34500;BME280;20745;50.882;6.962;2023-03-01T10:35:31;102019.84;;;4.07;70.60
34500;BME280;20745;50.882;6.962;2023-03-01T10:38:03;102019.25;;;4.14;70.58
34500;BME280;20745;50.882;6.962;2023-03-01T10:40:32;102001.13;;;4.07;70.26
34500;BME280;20745;50.882;6.962;2023-03-01T10:43:01;102012.53;;;4.09;69.29
34500;BME280;20745;50.882;6.962;2023-03-01T10:48:16;102014.13;;;4.24;69.65
34500;BME280;20745;50.882;6.962;2023-03-01T10:50:51;102018.19;;;4.29;68.82
34500;BME280;20745;50.882;6.962;2023-03-01T10:53:41;102021.91;;;4.39;68.80
34500;BME280;20745;50.882;6.962;2023-03-01T10:56:11;102017.16;;;4.43;68.86
34500;BME280;20745;50.882;6.962;2023-03-01T10:59:00;102002.75;;;4.45;68.60
34500;BME280;20745;50.882;6.962;2023-03-01T11:01:30;101995.97;;;4.52;68.19
34500;BME280;20745;50.882;6.962;2023-03-01T11:06:37;101982.78;;;4.62;68.84
34500;BME280;20745;50.882;6.962;2023-03-01T11:09:22;101979.66;;;4.68;68.31
34500;BME280;20745;50.882;6.962;2023-03-01T11:11:54;101965.53;;;4.66;66.02
34500;BME280;20745;50.882;6.962;2023-03-01T11:14:21;101965.06;;;4.72;65.56
34500;BME280;20745;50.882;6.962;2023-03-01T11:17:27;101961.19;;;4.76;65.21
34500;BME280;20745;50.882;6.962;2023-03-01T11:22:47;101954.13;;;4.75;66.94
34500;BME280;20745;50.882;6.962;2023-03-01T11:25:15;101952.00;;;4.80;66.20
34500;BME280;20745;50.882;6.962;2023-03-01T11:27:44;101944.69;;;4.82;66.86
34500;BME280;20745;50.882;6.962;2023-03-01T11:30:23;101941.78;;;4.85;66.42
34500;BME280;20745;50.882;6.962;2023-03-01T11:33:31;101946.34;;;4.95;65.68
34500;BME280;20745;50.882;6.962;2023-03-01T11:36:07;101933.28;;;4.91;65.21
34500;BME280;20745;50.882;6.962;2023-03-01T11:38:38;101926.47;;;4.87;65.16
34500;BME280;20745;50.882;6.962;2023-03-01T11:41:15;101918.00;;;5.04;65.81
34500;BME280;20745;50.882;6.962;2023-03-01T11:54:42;101915.75;;;5.22;63.87
34500;BME280;20745;50.882;6.962;2023-03-01T11:57:41;101913.94;;;5.33;62.97
34500;BME280;20745;50.882;6.962;2023-03-01T12:00:46;101893.63;;;5.42;62.56
34500;BME280;20745;50.882;6.962;2023-03-01T12:06:28;101878.41;;;5.53;61.90
34500;BME280;20745;50.882;6.962;2023-03-01T12:09:06;101884.25;;;5.58;62.19
34500;BME280;20745;50.882;6.962;2023-03-01T12:12:07;101881.56;;;5.58;61.47
34500;BME280;20745;50.882;6.962;2023-03-01T12:20:51;101871.09;;;5.77;61.83
34500;BME280;20745;50.882;6.962;2023-03-01T12:26:14;101869.75;;;5.94;61.85
34500;BME280;20745;50.882;6.962;2023-03-01T12:28:55;101853.19;;;6.00;62.20
34500;BME280;20745;50.882;6.962;2023-03-01T12:45:04;101849.09;;;6.27;59.74
34500;BME280;20745;50.882;6.962;2023-03-01T12:50:18;101851.00;;;6.36;59.93
34500;BME280;20745;50.882;6.962;2023-03-01T12:52:50;101846.59;;;6.46;60.07
34500;BME280;20745;50.882;6.962;2023-03-01T12:55:33;101839.31;;;6.58;60.29
34500;BME280;20745;50.882;6.962;2023-03-01T12:58:17;101841.09;;;6.68;58.79
34500;BME280;20745;50.882;6.962;2023-03-01T13:01:04;101827.13;;;6.65;58.52
34500;BME280;20745;50.882;6.962;2023-03-01T13:06:47;101800.59;;;6.71;60.03
34500;BME280;20745;50.882;6.962;2023-03-01T13:09:29;101811.47;;;6.90;61.20
34500;BME280;20745;50.882;6.962;2023-03-01T13:11:57;101815.41;;;6.86;59.80
34500;BME280;20745;50.882;6.962;2023-03-01T13:16:54;101803.59;;;6.98;61.24
34500;BME280;20745;50.882;6.962;2023-03-01T13:19:23;101802.59;;;6.99;58.14
34500;BME280;20745;50.882;6.962;2023-03-01T13:21:52;101793.19;;;7.05;58.19
34500;BME280;20745;50.882;6.962;2023-03-01T13:24:34;101799.97;;;7.09;57.91
34500;BME280;20745;50.882;6.962;2023-03-01T13:27:09;101792.22;;;7.15;58.78
34500;BME280;20745;50.882;6.962;2023-03-01T13:29:54;101791.25;;;7.16;58.80
34500;BME280;20745;50.882;6.962;2023-03-01T13:32:29;101785.06;;;7.25;56.99
34500;BME280;20745;50.882;6.962;2023-03-01T13:37:41;101797.72;;;7.44;56.07
34500;BME280;20745;50.882;6.962;2023-03-01T13:42:52;101789.53;;;7.45;55.64
34500;BME280;20745;50.882;6.962;2023-03-01T13:45:38;101776.69;;;7.49;55.63
34500;BME280;20745;50.882;6.962;2023-03-01T13:48:11;101778.69;;;7.57;54.99
34500;BME280;20745;50.882;6.962;2023-03-01T13:50:46;101754.06;;;7.51;54.67
34500;BME280;20745;50.882;6.962;2023-03-01T13:53:18;101769.38;;;7.61;55.09
34500;BME280;20745;50.882;6.962;2023-03-01T13:55:48;101760.03;;;7.65;54.42
34500;BME280;20745;50.882;6.962;2023-03-01T13:58:25;101765.41;;;7.65;54.54
34500;BME280;20745;50.882;6.962;2023-03-01T14:01:06;101750.69;;;7.69;54.71
34500;BME280;20745;50.882;6.962;2023-03-01T14:03:41;101754.13;;;7.80;54.26
34500;BME280;20745;50.882;6.962;2023-03-01T14:06:13;101760.38;;;7.81;54.51
34500;BME280;20745;50.882;6.962;2023-03-01T14:09:19;101757.69;;;7.81;54.48
34500;BME280;20745;50.882;6.962;2023-03-01T14:18:08;101747.91;;;7.99;54.21
34500;BME280;20745;50.882;6.962;2023-03-01T14:20:40;101742.53;;;7.99;53.95
34500;BME280;20745;50.882;6.962;2023-03-01T14:23:13;101743.41;;;7.99;53.79
34500;BME280;20745;50.882;6.962;2023-03-01T14:25:50;101727.97;;;7.92;53.86
34500;BME280;20745;50.882;6.962;2023-03-01T14:28:18;101735.19;;;8.01;54.07
34500;BME280;20745;50.882;6.962;2023-03-01T14:30:50;101724.16;;;8.04;52.51